sensor_id;sensor_type;location;lat;lon;timestamp;temperature;humidity
3268;DHT22;1646;52.450;13.326;2023-05-03T00:00:40;10.60;99.90
3268;DHT22;1646;52.450;13.326;2023-05-03T00:05:39;10.60;99.90
3268;DHT22;1646;52.450;13.326;2023-05-03T00:10:37;10.60;99.90
3268;DHT22;1646;52.450;13.326;2023-05-03T00:15:37;10.50;99.90
3268;DHT22;1646;52.450;13.326;2023-05-03T00:20:35;10.40;99.90
3268;DHT22;1646;52.450;13.326;2023-05-03T00:25:34;10.40;99.90
3268;DHT22;1646;52.450;13.326;2023-05-03T00:30:32;10.30;99.90
3268;DHT22;1646;52.450;13.326;2023-05-03T00:35:31;10.20;99.90
3268;DHT22;1646;52.450;13.326;2023-05-03T00:40:30;10.10;99.90
3268;DHT22;1646;52.450;13.326;2023-05-03T00:45:29;10.00;99.90
3268;DHT22;1646;52.450;13.326;2023-05-03T00:50:29;10.00;99.90
3268;DHT22;1646;52.450;13.326;2023-05-03T00:55:29;9.90;99.90
3268;DHT22;1646;52.450;13.326;2023-05-03T01:00:28;9.80;99.90
3268;DHT22;1646;52.450;13.326;2023-05-03T01:05:28;9.80;99.90
3268;DHT22;1646;52.450;13.326;2023-05-03T01:10:37;9.70;99.90
3268;DHT22;1646;52.450;13.326;2023-05-03T01:15:44;9.70;99.90
3268;DHT22;1646;52.450;13.326;2023-05-03T01:20:48;9.70;99.90
3268;DHT22;1646;52.450;13.326;2023-05-03T01:25:51;9.60;99.90
3268;DHT22;1646;52.450;13.326;2023-05-03T01:30:51;9.50;99.90
3268;DHT22;1646;52.450;13.326;2023-05-03T01:35:53;9.40;99.90
3268;DHT22;1646;52.450;13.326;2023-05-03T01:40:57;9.30;99.90
3268;DHT22;1646;52.450;13.326;2023-05-03T01:45:57;9.30;99.90
3268;DHT22;1646;52.450;13.326;2023-05-03T01:50:56;9.20;99.90
3268;DHT22;1646;52.450;13.326;2023-05-03T01:55:55;9.10;99.90
3268;DHT22;1646;52.450;13.326;2023-05-03T02:00:53;9.10;99.90
3268;DHT22;1646;52.450;13.326;2023-05-03T02:05:52;9.10;99.90
3268;DHT22;1646;52.450;13.326;2023-05-03T02:10:50;9.00;99.90
3268;DHT22;1646;52.450;13.326;2023-05-03T02:15:50;8.90;99.90
3268;DHT22;1646;52.450;13.326;2023-05-03T02:20:48;8.80;99.90
3268;DHT22;1646;52.450;13.326;2023-05-03T02:25:46;8.70;99.90
3268;DHT22;1646;52.450;13.326;2023-05-03T02:30:45;8.70;99.90
3268;DHT22;1646;52.450;13.326;2023-05-03T02:35:45;8.70;99.90
3268;DHT22;1646;52.450;13.326;2023-05-03T02:40:43;8.50;99.90
3268;DHT22;1646;52.450;13.326;2023-05-03T02:45:42;8.40;99.90
3268;DHT22;1646;52.450;13.326;2023-05-03T02:50:41;8.40;99.90
3268;DHT22;1646;52.450;13.326;2023-05-03T02:55:42;8.40;99.90
3268;DHT22;1646;52.450;13.326;2023-05-03T03:00:40;8.40;99.90
3268;DHT22;1646;52.450;13.326;2023-05-03T03:05:39;8.40;99.90
3268;DHT22;1646;52.450;13.326;2023-05-03T03:10:38;8.30;99.90
3268;DHT22;1646;52.450;13.326;2023-05-03T03:15:40;8.30;99.90
3268;DHT22;1646;52.450;13.326;2023-05-03T03:20:38;8.30;99.90
3268;DHT22;1646;52.450;13.326;2023-05-03T03:25:37;8.10;99.90
3268;DHT22;1646;52.450;13.326;2023-05-03T03:30:35;8.00;99.90
3268;DHT22;1646;52.450;13.326;2023-05-03T03:35:46;8.10;99.90
3268;DHT22;1646;52.450;13.326;2023-05-03T03:40:46;8.10;99.90
3268;DHT22;1646;52.450;13.326;2023-05-03T03:45:45;8.00;99.90
3268;DHT22;1646;52.450;13.326;2023-05-03T03:50:47;8.00;99.90
3268;DHT22;1646;52.450;13.326;2023-05-03T03:55:48;8.00;99.90
3268;DHT22;1646;52.450;13.326;2023-05-03T04:00:47;7.90;99.90
3268;DHT22;1646;52.450;13.326;2023-05-03T04:05:50;7.90;99.90
3268;DHT22;1646;52.450;13.326;2023-05-03T04:10:50;7.90;99.90
3268;DHT22;1646;52.450;13.326;2023-05-03T04:15:52;7.80;99.90
3268;DHT22;1646;52.450;13.326;2023-05-03T04:20:52;7.80;99.90
3268;DHT22;1646;52.450;13.326;2023-05-03T04:25:51;7.90;99.90
3268;DHT22;1646;52.450;13.326;2023-05-03T04:30:50;8.00;99.90
3268;DHT22;1646;52.450;13.326;2023-05-03T04:35:56;8.00;99.90
3268;DHT22;1646;52.450;13.326;2023-05-03T04:40:55;8.00;99.90
3268;DHT22;1646;52.450;13.326;2023-05-03T04:45:54;8.00;99.90
3268;DHT22;1646;52.450;13.326;2023-05-03T04:50:57;8.00;99.90
3268;DHT22;1646;52.450;13.326;2023-05-03T04:55:55;8.30;99.90
3268;DHT22;1646;52.450;13.326;2023-05-03T05:00:54;8.30;99.90
3268;DHT22;1646;52.450;13.326;2023-05-03T05:05:59;8.40;99.90
3268;DHT22;1646;52.450;13.326;2023-05-03T05:11:00;8.60;99.90
3268;DHT22;1646;52.450;13.326;2023-05-03T05:16:00;8.70;99.90
3268;DHT22;1646;52.450;13.326;2023-05-03T05:21:02;8.80;99.90
3268;DHT22;1646;52.450;13.326;2023-05-03T05:26:02;8.80;99.90
3268;DHT22;1646;52.450;13.326;2023-05-03T05:31:01;8.90;99.90
3268;DHT22;1646;52.450;13.326;2023-05-03T05:36:02;8.90;99.90
3268;DHT22;1646;52.450;13.326;2023-05-03T05:41:03;9.00;99.90
3268;DHT22;1646;52.450;13.326;2023-05-03T05:46:03;9.10;99.90
3268;DHT22;1646;52.450;13.326;2023-05-03T05:51:03;9.20;99.90
3268;DHT22;1646;52.450;13.326;2023-05-03T05:56:03;9.40;99.90
3268;DHT22;1646;52.450;13.326;2023-05-03T06:01:03;9.50;99.90
3268;DHT22;1646;52.450;13.326;2023-05-03T06:06:06;9.70;99.90
3268;DHT22;1646;52.450;13.326;2023-05-03T06:11:05;9.90;99.90
3268;DHT22;1646;52.450;13.326;2023-05-03T06:16:05;10.10;99.90
3268;DHT22;1646;52.450;13.326;2023-05-03T06:21:03;10.20;99.90
3268;DHT22;1646;52.450;13.326;2023-05-03T06:26:03;10.30;99.90
3268;DHT22;1646;52.450;13.326;2023-05-03T06:31:02;10.50;99.90
3268;DHT22;1646;52.450;13.326;2023-05-03T06:36:02;10.40;99.90
3268;DHT22;1646;52.450;13.326;2023-05-03T06:41:00;10.50;99.90
3268;DHT22;1646;52.450;13.326;2023-05-03T06:46:01;10.80;99.90
3268;DHT22;1646;52.450;13.326;2023-05-03T06:50:59;11.00;99.90
3268;DHT22;1646;52.450;13.326;2023-05-03T06:55:58;11.10;99.90
3268;DHT22;1646;52.450;13.326;2023-05-03T07:00:56;11.30;99.90
3268;DHT22;1646;52.450;13.326;2023-05-03T07:05:56;11.40;99.90
3268;DHT22;1646;52.450;13.326;2023-05-03T07:10:54;11.10;99.90
3268;DHT22;1646;52.450;13.326;2023-05-03T07:15:52;11.00;99.90
3268;DHT22;1646;52.450;13.326;2023-05-03T07:20:51;11.20;99.90
3268;DHT22;1646;52.450;13.326;2023-05-03T07:25:51;11.60;99.90
3268;DHT22;1646;52.450;13.326;2023-05-03T07:30:50;11.80;99.90
3268;DHT22;1646;52.450;13.326;2023-05-03T07:35:48;11.70;99.90
3268;DHT22;1646;52.450;13.326;2023-05-03T07:40:46;11.80;99.90
3268;DHT22;1646;52.450;13.326;2023-05-03T07:45:46;11.70;99.90
3268;DHT22;1646;52.450;13.326;2023-05-03T07:50:44;11.80;99.90
3268;DHT22;1646;52.450;13.326;2023-05-03T07:55:42;11.90;99.90
3268;DHT22;1646;52.450;13.326;2023-05-03T08:00:40;12.00;99.90
3268;DHT22;1646;52.450;13.326;2023-05-03T08:05:40;12.40;99.90
3268;DHT22;1646;52.450;13.326;2023-05-03T08:10:39;12.80;99.90
3268;DHT22;1646;52.450;13.326;2023-05-03T08:15:37;13.10;99.90
3268;DHT22;1646;52.450;13.326;2023-05-03T08:20:36;13.00;99.40
3268;DHT22;1646;52.450;13.326;2023-05-03T08:25:36;12.70;99.50
3268;DHT22;1646;52.450;13.326;2023-05-03T08:30:35;12.90;99.90
3268;DHT22;1646;52.450;13.326;2023-05-03T08:35:33;13.50;99.90
3268;DHT22;1646;52.450;13.326;2023-05-03T08:40:31;14.00;99.90
3268;DHT22;1646;52.450;13.326;2023-05-03T08:45:34;14.20;99.90
3268;DHT22;1646;52.450;13.326;2023-05-03T08:50:33;14.40;99.90
3268;DHT22;1646;52.450;13.326;2023-05-03T08:55:38;14.70;99.60
3268;DHT22;1646;52.450;13.326;2023-05-03T09:00:37;14.70;98.30
3268;DHT22;1646;52.450;13.326;2023-05-03T09:05:37;14.80;97.30
3268;DHT22;1646;52.450;13.326;2023-05-03T09:10:38;15.00;98.60
3268;DHT22;1646;52.450;13.326;2023-05-03T09:15:38;16.20;95.60
3268;DHT22;1646;52.450;13.326;2023-05-03T09:20:39;16.70;94.10
3268;DHT22;1646;52.450;13.326;2023-05-03T09:25:45;18.00;91.40
3268;DHT22;1646;52.450;13.326;2023-05-03T09:30:46;18.90;90.60
3268;DHT22;1646;52.450;13.326;2023-05-03T09:35:55;18.90;80.10
3268;DHT22;1646;52.450;13.326;2023-05-03T09:40:53;19.20;80.60
3268;DHT22;1646;52.450;13.326;2023-05-03T09:46:06;19.40;74.00
3268;DHT22;1646;52.450;13.326;2023-05-03T09:51:05;20.10;73.50
3268;DHT22;1646;52.450;13.326;2023-05-03T09:56:05;20.40;73.50
3268;DHT22;1646;52.450;13.326;2023-05-03T10:01:06;20.90;75.60
3268;DHT22;1646;52.450;13.326;2023-05-03T10:06:14;21.60;67.80
3268;DHT22;1646;52.450;13.326;2023-05-03T10:11:15;21.10;66.00
3268;DHT22;1646;52.450;13.326;2023-05-03T10:16:20;20.70;64.10
3268;DHT22;1646;52.450;13.326;2023-05-03T10:21:24;20.40;73.40
3268;DHT22;1646;52.450;13.326;2023-05-03T10:26:28;20.30;65.70
3268;DHT22;1646;52.450;13.326;2023-05-03T10:31:46;19.40;65.00
3268;DHT22;1646;52.450;13.326;2023-05-03T10:36:46;18.70;66.50
3268;DHT22;1646;52.450;13.326;2023-05-03T10:41:56;18.90;71.70
3268;DHT22;1646;52.450;13.326;2023-05-03T10:46:56;19.20;73.50
3268;DHT22;1646;52.450;13.326;2023-05-03T10:57:39;19.70;66.60
3268;DHT22;1646;52.450;13.326;2023-05-03T11:02:42;19.90;67.10
3268;DHT22;1646;52.450;13.326;2023-05-03T11:07:48;19.90;61.30
3268;DHT22;1646;52.450;13.326;2023-05-03T11:12:47;19.20;62.50
3268;DHT22;1646;52.450;13.326;2023-05-03T11:17:47;18.80;62.60
3268;DHT22;1646;52.450;13.326;2023-05-03T11:22:45;19.00;65.50
3268;DHT22;1646;52.450;13.326;2023-05-03T11:27:43;19.30;62.40
3268;DHT22;1646;52.450;13.326;2023-05-03T11:32:43;18.70;62.30
3268;DHT22;1646;52.450;13.326;2023-05-03T11:37:43;18.90;67.50
3268;DHT22;1646;52.450;13.326;2023-05-03T11:42:51;19.50;63.80
3268;DHT22;1646;52.450;13.326;2023-05-03T11:47:50;20.20;66.20
3268;DHT22;1646;52.450;13.326;2023-05-03T11:52:50;20.50;62.30
3268;DHT22;1646;52.450;13.326;2023-05-03T11:57:50;20.30;61.10
3268;DHT22;1646;52.450;13.326;2023-05-03T12:02:48;20.20;64.00
3268;DHT22;1646;52.450;13.326;2023-05-03T12:07:46;20.00;61.70
3268;DHT22;1646;52.450;13.326;2023-05-03T12:12:55;19.70;64.20
3268;DHT22;1646;52.450;13.326;2023-05-03T12:17:57;19.90;64.20
3268;DHT22;1646;52.450;13.326;2023-05-03T12:23:00;20.00;62.40
3268;DHT22;1646;52.450;13.326;2023-05-03T12:28:02;19.90;58.90
3268;DHT22;1646;52.450;13.326;2023-05-03T12:33:04;19.40;59.20
3268;DHT22;1646;52.450;13.326;2023-05-03T12:38:05;19.60;62.70
3268;DHT22;1646;52.450;13.326;2023-05-03T12:43:07;19.90;61.60
3268;DHT22;1646;52.450;13.326;2023-05-03T12:48:06;20.20;64.50
3268;DHT22;1646;52.450;13.326;2023-05-03T12:53:04;20.50;64.40
3268;DHT22;1646;52.450;13.326;2023-05-03T12:58:07;20.40;58.80
3268;DHT22;1646;52.450;13.326;2023-05-03T13:03:09;19.20;63.70
3268;DHT22;1646;52.450;13.326;2023-05-03T13:08:18;19.10;64.00
3268;DHT22;1646;52.450;13.326;2023-05-03T13:13:19;19.30;61.90
3268;DHT22;1646;52.450;13.326;2023-05-03T13:18:17;19.30;64.30
3268;DHT22;1646;52.450;13.326;2023-05-03T13:23:15;19.50;60.20
3268;DHT22;1646;52.450;13.326;2023-05-03T13:28:14;19.60;59.40
3268;DHT22;1646;52.450;13.326;2023-05-03T13:33:17;19.70;62.50
3268;DHT22;1646;52.450;13.326;2023-05-03T13:38:15;19.70;60.80
3268;DHT22;1646;52.450;13.326;2023-05-03T13:43:14;19.90;62.50
3268;DHT22;1646;52.450;13.326;2023-05-03T13:48:12;20.20;60.80
3268;DHT22;1646;52.450;13.326;2023-05-03T13:53:16;20.20;62.00
3268;DHT22;1646;52.450;13.326;2023-05-03T13:58:14;20.10;61.00
3268;DHT22;1646;52.450;13.326;2023-05-03T14:03:13;20.40;59.40
3268;DHT22;1646;52.450;13.326;2023-05-03T14:08:11;20.10;59.10
3268;DHT22;1646;52.450;13.326;2023-05-03T14:13:11;20.00;59.10
3268;DHT22;1646;52.450;13.326;2023-05-03T14:18:09;20.10;56.80
3268;DHT22;1646;52.450;13.326;2023-05-03T14:23:08;20.10;58.70
3268;DHT22;1646;52.450;13.326;2023-05-03T14:28:06;20.50;58.40
3268;DHT22;1646;52.450;13.326;2023-05-03T14:33:06;20.70;58.50
3268;DHT22;1646;52.450;13.326;2023-05-03T14:38:05;21.00;57.10
3268;DHT22;1646;52.450;13.326;2023-05-03T14:43:04;21.10;57.00
3268;DHT22;1646;52.450;13.326;2023-05-03T14:48:05;21.00;58.70
3268;DHT22;1646;52.450;13.326;2023-05-03T14:53:04;20.70;56.10
3268;DHT22;1646;52.450;13.326;2023-05-03T14:58:02;20.80;56.70
3268;DHT22;1646;52.450;13.326;2023-05-03T15:03:02;20.80;56.70
3268;DHT22;1646;52.450;13.326;2023-05-03T15:08:02;21.00;58.60
3268;DHT22;1646;52.450;13.326;2023-05-03T15:13:01;21.50;58.80
3268;DHT22;1646;52.450;13.326;2023-05-03T15:17:59;21.10;54.40
3268;DHT22;1646;52.450;13.326;2023-05-03T15:22:58;20.20;54.70
3268;DHT22;1646;52.450;13.326;2023-05-03T15:27:57;19.50;56.30
3268;DHT22;1646;52.450;13.326;2023-05-03T15:33:00;19.30;55.30
3268;DHT22;1646;52.450;13.326;2023-05-03T15:38:00;19.60;57.20
3268;DHT22;1646;52.450;13.326;2023-05-03T15:42:59;19.70;57.10
3268;DHT22;1646;52.450;13.326;2023-05-03T15:47:58;19.60;56.30
3268;DHT22;1646;52.450;13.326;2023-05-03T15:52:56;19.40;56.10
3268;DHT22;1646;52.450;13.326;2023-05-03T15:57:54;19.50;57.10
3268;DHT22;1646;52.450;13.326;2023-05-03T16:02:54;19.70;58.30
3268;DHT22;1646;52.450;13.326;2023-05-03T16:07:53;20.10;59.70
3268;DHT22;1646;52.450;13.326;2023-05-03T16:12:51;20.40;57.80
3268;DHT22;1646;52.450;13.326;2023-05-03T16:17:49;20.50;56.50
3268;DHT22;1646;52.450;13.326;2023-05-03T16:22:51;20.10;56.00
3268;DHT22;1646;52.450;13.326;2023-05-03T16:27:49;19.70;56.20
3268;DHT22;1646;52.450;13.326;2023-05-03T16:32:48;19.50;57.20
3268;DHT22;1646;52.450;13.326;2023-05-03T16:37:49;19.60;57.90
3268;DHT22;1646;52.450;13.326;2023-05-03T16:42:49;19.50;57.80
3268;DHT22;1646;52.450;13.326;2023-05-03T16:47:47;19.40;58.10
3268;DHT22;1646;52.450;13.326;2023-05-03T16:52:46;19.20;58.40
3268;DHT22;1646;52.450;13.326;2023-05-03T16:57:45;19.10;58.10
3268;DHT22;1646;52.450;13.326;2023-05-03T17:02:44;18.80;59.40
3268;DHT22;1646;52.450;13.326;2023-05-03T17:07:42;18.70;59.10
3268;DHT22;1646;52.450;13.326;2023-05-03T17:12:41;18.50;60.10
3268;DHT22;1646;52.450;13.326;2023-05-03T17:17:45;18.50;60.60
3268;DHT22;1646;52.450;13.326;2023-05-03T17:22:43;18.50;61.80
3268;DHT22;1646;52.450;13.326;2023-05-03T17:27:41;18.10;61.00
3268;DHT22;1646;52.450;13.326;2023-05-03T17:32:40;17.80;61.90
3268;DHT22;1646;52.450;13.326;2023-05-03T17:37:39;17.60;62.40
3268;DHT22;1646;52.450;13.326;2023-05-03T17:42:38;17.30;61.90
3268;DHT22;1646;52.450;13.326;2023-05-03T17:47:37;17.00;62.50
3268;DHT22;1646;52.450;13.326;2023-05-03T17:52:35;16.60;63.70
3268;DHT22;1646;52.450;13.326;2023-05-03T17:57:35;16.40;64.80
3268;DHT22;1646;52.450;13.326;2023-05-03T18:02:33;16.20;64.60
3268;DHT22;1646;52.450;13.326;2023-05-03T18:07:32;16.00;66.00
3268;DHT22;1646;52.450;13.326;2023-05-03T18:12:30;16.00;65.30
3268;DHT22;1646;52.450;13.326;2023-05-03T18:17:30;15.90;65.70
3268;DHT22;1646;52.450;13.326;2023-05-03T18:22:28;15.70;66.20
3268;DHT22;1646;52.450;13.326;2023-05-03T18:27:27;15.50;68.00
3268;DHT22;1646;52.450;13.326;2023-05-03T18:32:25;15.40;67.50
3268;DHT22;1646;52.450;13.326;2023-05-03T18:37:25;15.30;67.30
3268;DHT22;1646;52.450;13.326;2023-05-03T18:42:23;15.20;67.70
3268;DHT22;1646;52.450;13.326;2023-05-03T18:47:21;15.10;68.10
3268;DHT22;1646;52.450;13.326;2023-05-03T18:52:21;14.90;68.30
3268;DHT22;1646;52.450;13.326;2023-05-03T18:57:21;14.80;69.40
3268;DHT22;1646;52.450;13.326;2023-05-03T19:02:19;14.80;69.80
3268;DHT22;1646;52.450;13.326;2023-05-03T19:07:17;14.70;70.70
3268;DHT22;1646;52.450;13.326;2023-05-03T19:12:15;14.70;70.10
3268;DHT22;1646;52.450;13.326;2023-05-03T19:17:15;14.70;69.90
3268;DHT22;1646;52.450;13.326;2023-05-03T19:22:13;14.60;70.20
3268;DHT22;1646;52.450;13.326;2023-05-03T19:27:11;14.60;69.70
3268;DHT22;1646;52.450;13.326;2023-05-03T19:32:10;14.50;70.50
3268;DHT22;1646;52.450;13.326;2023-05-03T19:37:09;14.50;72.30
3268;DHT22;1646;52.450;13.326;2023-05-03T19:42:07;14.50;72.20
3268;DHT22;1646;52.450;13.326;2023-05-03T19:47:06;14.50;72.20
3268;DHT22;1646;52.450;13.326;2023-05-03T19:52:04;14.40;71.80
3268;DHT22;1646;52.450;13.326;2023-05-03T19:57:04;14.30;72.40
3268;DHT22;1646;52.450;13.326;2023-05-03T20:02:03;14.20;72.10
3268;DHT22;1646;52.450;13.326;2023-05-03T20:07:01;14.20;73.40
3268;DHT22;1646;52.450;13.326;2023-05-03T20:12:00;14.10;74.50
3268;DHT22;1646;52.450;13.326;2023-05-03T20:16:59;14.10;75.20
3268;DHT22;1646;52.450;13.326;2023-05-03T20:21:58;14.00;74.80
3268;DHT22;1646;52.450;13.326;2023-05-03T20:26:56;13.90;74.20
3268;DHT22;1646;52.450;13.326;2023-05-03T20:31:54;13.80;75.80
3268;DHT22;1646;52.450;13.326;2023-05-03T20:36:54;13.70;75.10
3268;DHT22;1646;52.450;13.326;2023-05-03T20:41:52;13.60;75.30
3268;DHT22;1646;52.450;13.326;2023-05-03T20:46:50;13.60;76.60
3268;DHT22;1646;52.450;13.326;2023-05-03T20:51:48;13.40;78.10
3268;DHT22;1646;52.450;13.326;2023-05-03T20:56:48;13.30;77.90
3268;DHT22;1646;52.450;13.326;2023-05-03T21:01:46;13.20;80.20
3268;DHT22;1646;52.450;13.326;2023-05-03T21:06:45;13.20;80.10
3268;DHT22;1646;52.450;13.326;2023-05-03T21:11:43;13.10;79.90
3268;DHT22;1646;52.450;13.326;2023-05-03T21:16:43;13.00;79.80
3268;DHT22;1646;52.450;13.326;2023-05-03T21:21:41;12.90;79.70
3268;DHT22;1646;52.450;13.326;2023-05-03T21:26:39;12.70;79.70
3268;DHT22;1646;52.450;13.326;2023-05-03T21:31:37;12.70;80.90
3268;DHT22;1646;52.450;13.326;2023-05-03T21:36:38;12.70;81.90
3268;DHT22;1646;52.450;13.326;2023-05-03T21:41:36;12.60;82.40
3268;DHT22;1646;52.450;13.326;2023-05-03T21:46:34;12.50;82.70
3268;DHT22;1646;52.450;13.326;2023-05-03T21:51:32;12.50;83.80
3268;DHT22;1646;52.450;13.326;2023-05-03T21:56:32;12.40;84.20
3268;DHT22;1646;52.450;13.326;2023-05-03T22:01:30;12.40;84.30
3268;DHT22;1646;52.450;13.326;2023-05-03T22:06:28;12.30;84.70
3268;DHT22;1646;52.450;13.326;2023-05-03T22:11:28;12.30;86.60
3268;DHT22;1646;52.450;13.326;2023-05-03T22:16:27;12.30;87.40
3268;DHT22;1646;52.450;13.326;2023-05-03T22:21:26;12.30;88.30
3268;DHT22;1646;52.450;13.326;2023-05-03T22:26:24;12.30;88.70
3268;DHT22;1646;52.450;13.326;2023-05-03T22:31:22;12.30;88.80
3268;DHT22;1646;52.450;13.326;2023-05-03T22:36:22;12.20;90.20
3268;DHT22;1646;52.450;13.326;2023-05-03T22:41:21;12.20;90.60
3268;DHT22;1646;52.450;13.326;2023-05-03T22:46:19;12.10;91.10
3268;DHT22;1646;52.450;13.326;2023-05-03T22:51:17;12.10;91.20
3268;DHT22;1646;52.450;13.326;2023-05-03T22:56:17;12.10;91.80
3268;DHT22;1646;52.450;13.326;2023-05-03T23:01:15;12.00;92.60
3268;DHT22;1646;52.450;13.326;2023-05-03T23:06:14;11.90;92.10
3268;DHT22;1646;52.450;13.326;2023-05-03T23:11:12;11.80;92.50
3268;DHT22;1646;52.450;13.326;2023-05-03T23:16:12;11.70;92.90
3268;DHT22;1646;52.450;13.326;2023-05-03T23:21:10;11.60;95.20
3268;DHT22;1646;52.450;13.326;2023-05-03T23:26:08;11.60;95.20
3268;DHT22;1646;52.450;13.326;2023-05-03T23:31:07;11.60;95.20
3268;DHT22;1646;52.450;13.326;2023-05-03T23:36:08;11.60;95.50
3268;DHT22;1646;52.450;13.326;2023-05-03T23:41:06;11.60;95.40
3268;DHT22;1646;52.450;13.326;2023-05-03T23:46:04;11.50;95.40
3268;DHT22;1646;52.450;13.326;2023-05-03T23:51:03;11.60;95.50
3268;DHT22;1646;52.450;13.326;2023-05-03T23:56:03;11.50;95.50
